createdAt,value
2022-10-29T00:02:27.628Z,99.99
2022-10-29T00:07:27.462Z,99.99
2022-10-29T00:12:27.386Z,99.99
2022-10-29T00:17:27.339Z,99.99
2022-10-29T00:22:27.290Z,99.99
2022-10-29T00:27:27.261Z,99.99
2022-10-29T00:32:27.131Z,99.99
2022-10-29T00:37:27.072Z,99.99
2022-10-29T00:42:27.000Z,99.99
2022-10-29T00:47:26.980Z,99.99
2022-10-29T00:52:26.884Z,99.99
2022-10-29T00:57:26.823Z,99.99
2022-10-29T01:02:26.865Z,99.99
2022-10-29T01:07:26.700Z,99.99
2022-10-29T01:12:26.634Z,99.99
2022-10-29T01:17:26.563Z,99.99
2022-10-29T01:22:26.504Z,99.99
2022-10-29T01:27:26.446Z,99.99
2022-10-29T01:32:26.376Z,99.99
2022-10-29T01:37:26.306Z,99.99
2022-10-29T01:42:26.236Z,99.99
2022-10-29T01:47:26.177Z,99.99
2022-10-29T01:52:26.107Z,99.99
2022-10-29T01:57:26.048Z,99.99
2022-10-29T02:02:25.978Z,99.99
2022-10-29T02:07:25.928Z,99.99
2022-10-29T02:12:25.862Z,99.99
2022-10-29T02:17:25.801Z,99.99
2022-10-29T02:22:25.731Z,99.99
2022-10-29T02:27:25.680Z,99.99
2022-10-29T02:32:25.600Z,99.99
2022-10-29T02:37:25.541Z,99.99
2022-10-29T02:42:25.480Z,99.99
2022-10-29T02:47:25.424Z,99.99
2022-10-29T02:52:25.362Z,99.99
2022-10-29T02:57:25.292Z,99.99
2022-10-29T03:02:25.294Z,99.99
2022-10-29T03:07:25.171Z,99.99
2022-10-29T03:12:25.093Z,99.99
2022-10-29T03:17:25.043Z,99.99
2022-10-29T03:22:24.994Z,99.99
2022-10-29T03:27:24.904Z,99.99
2022-10-29T03:32:24.845Z,99.99
2022-10-29T03:37:24.785Z,99.99
2022-10-29T03:42:24.719Z,99.99
2022-10-29T03:47:24.655Z,99.99
2022-10-29T03:52:24.597Z,99.99
2022-10-29T03:57:24.551Z,99.99
2022-10-29T04:02:24.547Z,99.99
2022-10-29T04:07:24.407Z,99.99
2022-10-29T04:12:24.338Z,99.99
2022-10-29T04:17:24.269Z,99.99
2022-10-29T04:28:28.941Z,99.99
2022-10-29T04:32:25.077Z,99.99
2022-10-29T04:37:24.012Z,99.99
2022-10-29T04:42:23.962Z,99.99
2022-10-29T04:47:23.897Z,99.99
2022-10-29T04:52:23.830Z,99.99
2022-10-29T04:57:23.749Z,99.99
2022-10-29T05:02:23.691Z,99.99
2022-10-29T05:07:23.631Z,99.99
2022-10-29T05:12:23.570Z,99.99
2022-10-29T05:17:23.515Z,99.99
2022-10-29T05:22:23.443Z,99.99
2022-10-29T05:27:23.382Z,99.99
2022-10-29T05:32:23.335Z,99.99
2022-10-29T05:37:23.253Z,99.99
2022-10-29T05:42:23.175Z,99.99
2022-10-29T05:47:23.133Z,99.99
2022-10-29T05:52:23.082Z,99.99
2022-10-29T05:57:23.003Z,99.99
2022-10-29T06:02:23.088Z,99.99
2022-10-29T06:07:22.890Z,99.99
2022-10-29T06:12:22.803Z,99.99
2022-10-29T06:17:22.754Z,99.99
2022-10-29T06:22:22.685Z,99.99
2022-10-29T06:27:22.604Z,99.99
2022-10-29T06:32:22.595Z,99.99
2022-10-29T06:37:22.486Z,99.99
2022-10-29T06:42:22.433Z,99.99
2022-10-29T06:47:22.371Z,99.99
2022-10-29T06:52:22.295Z,99.99
2022-10-29T06:57:22.235Z,99.99
2022-10-29T07:02:22.172Z,99.99
2022-10-29T07:07:22.107Z,99.99
2022-10-29T07:12:22.036Z,99.99
2022-10-29T07:17:21.979Z,99.99
2022-10-29T07:22:21.919Z,99.99
2022-10-29T07:27:21.887Z,99.99
2022-10-29T07:32:21.780Z,99.99
2022-10-29T07:37:21.819Z,99.99
2022-10-29T07:42:21.652Z,99.99
2022-10-29T07:47:21.591Z,99.99
2022-10-29T07:52:21.530Z,99.99
2022-10-29T07:57:21.471Z,99.99
2022-10-29T08:02:21.426Z,99.99
2022-10-29T08:07:21.342Z,99.99
2022-10-29T08:12:21.279Z,99.99
2022-10-29T08:17:21.213Z,99.99
2022-10-29T08:22:21.144Z,99.99
2022-10-29T08:27:21.092Z,99.99
2022-10-29T08:32:21.072Z,99.99
2022-10-29T08:37:20.965Z,99.99
2022-10-29T08:42:20.905Z,99.99
2022-10-29T08:47:20.840Z,99.99
2022-10-29T08:52:20.795Z,99.99
2022-10-29T08:57:20.711Z,99.99
2022-10-29T09:02:20.663Z,99.99
2022-10-29T09:07:20.598Z,99.99
2022-10-29T09:12:20.527Z,99.99
2022-10-29T09:17:20.470Z,99.99
2022-10-29T09:22:20.380Z,99.99
2022-10-29T09:27:20.327Z,99.99
2022-10-29T09:32:20.303Z,99.99
2022-10-29T09:37:20.209Z,99.99
2022-10-29T09:42:20.138Z,99.99
2022-10-29T09:47:20.070Z,99.99
2022-10-29T09:52:20.042Z,99.99
2022-10-29T09:57:19.963Z,99.87
2022-10-29T10:02:19.930Z,99.93
2022-10-29T10:07:19.866Z,99.48
2022-10-29T10:12:19.744Z,98.77
2022-10-29T10:17:19.701Z,98.22
2022-10-29T10:22:19.617Z,97.67
2022-10-29T10:27:19.586Z,97.27
2022-10-29T10:32:19.507Z,96.51
2022-10-29T10:37:19.436Z,95.06
2022-10-29T10:42:19.371Z,93.50
2022-10-29T10:47:19.310Z,91.39
2022-10-29T10:52:19.240Z,90.65
2022-10-29T10:57:19.203Z,88.85
2022-10-29T11:02:19.211Z,87.81
2022-10-29T11:07:19.075Z,87.37
2022-10-29T11:12:19.007Z,87.93
2022-10-29T11:17:18.925Z,85.68
2022-10-29T11:22:18.856Z,84.09
2022-10-29T11:27:18.797Z,85.19
2022-10-29T11:32:18.736Z,83.65
2022-10-29T11:37:18.670Z,80.36
2022-10-29T11:42:18.608Z,77.83
2022-10-29T11:47:18.540Z,78.69
2022-10-29T11:52:18.523Z,76.09
2022-10-29T11:57:18.411Z,73.86
2022-10-29T12:02:18.354Z,73.69
2022-10-29T12:07:18.284Z,73.69
2022-10-29T12:12:18.246Z,74.53
2022-10-29T12:17:18.168Z,74.22
2022-10-29T12:22:18.119Z,74.13
2022-10-29T12:27:18.028Z,73.93
2022-10-29T12:32:17.969Z,74.53
2022-10-29T12:37:17.910Z,74.43
2022-10-29T12:42:17.883Z,73.29
2022-10-29T12:47:17.811Z,74.09
2022-10-29T12:52:17.724Z,73.79
2022-10-29T12:57:17.674Z,73.56
2022-10-29T13:02:17.673Z,74.55
2022-10-29T13:07:17.596Z,74.26
2022-10-29T13:12:17.458Z,73.36
2022-10-29T13:17:17.386Z,73.32
2022-10-29T13:22:17.348Z,73.02
2022-10-29T13:27:17.272Z,72.52
2022-10-29T13:32:17.220Z,73.49
2022-10-29T13:37:17.131Z,72.69
2022-10-29T13:42:17.073Z,73.19
2022-10-29T13:47:17.001Z,72.89
2022-10-29T13:52:16.974Z,73.09
2022-10-29T13:57:16.876Z,72.59
2022-10-29T14:02:17.094Z,72.99
2022-10-29T14:07:16.801Z,72.59
2022-10-29T14:12:16.726Z,71.89
2022-10-29T14:17:16.620Z,71.69
2022-10-29T14:22:16.580Z,71.99
2022-10-29T14:27:16.485Z,72.19
2022-10-29T14:32:16.436Z,72.52
2022-10-29T14:37:16.394Z,72.72
2022-10-29T14:42:16.387Z,73.46
2022-10-29T14:47:16.247Z,74.19
2022-10-29T14:52:16.218Z,75.39
2022-10-29T14:57:16.177Z,75.09
2022-10-29T15:07:17.019Z,77.36
2022-10-29T15:12:15.923Z,78.41
2022-10-29T15:17:15.874Z,79.68
2022-10-29T15:22:15.802Z,80.22
2022-10-29T15:27:15.717Z,81.16
2022-10-29T15:32:15.674Z,82.00
2022-10-29T15:37:15.602Z,82.95
2022-10-29T15:42:15.546Z,83.59
2022-10-29T15:47:15.478Z,85.03
2022-10-29T15:52:15.435Z,86.93
2022-10-29T15:57:15.360Z,88.28
2022-10-29T16:02:15.469Z,89.12
2022-10-29T16:07:15.222Z,89.57
2022-10-29T16:12:15.179Z,90.32
2022-10-29T16:17:15.093Z,91.67
2022-10-29T16:22:15.062Z,92.72
2022-10-29T16:27:14.970Z,93.63
2022-10-29T16:32:14.884Z,93.98
2022-10-29T16:37:14.882Z,93.98
2022-10-29T16:42:14.795Z,96.14
2022-10-29T16:47:14.709Z,97.20
2022-10-29T16:52:18.959Z,97.20
2022-10-29T16:57:15.590Z,97.40
2022-10-29T17:02:14.527Z,96.29
2022-10-29T17:07:14.476Z,96.74
2022-10-29T17:12:14.409Z,96.34
2022-10-29T17:17:14.350Z,95.93
2022-10-29T17:22:14.289Z,96.54
2022-10-29T17:27:14.203Z,97.29
2022-10-29T17:32:14.151Z,97.74
2022-10-29T17:37:14.074Z,98.14
2022-10-29T17:42:14.025Z,98.60
2022-10-29T17:47:13.966Z,99.86
2022-10-29T17:52:13.884Z,99.99
2022-10-29T17:57:13.826Z,99.99
2022-10-29T18:02:13.853Z,99.70
2022-10-29T18:07:13.696Z,99.80
2022-10-29T18:12:13.636Z,99.99
2022-10-29T18:17:13.562Z,99.99
2022-10-29T18:22:13.499Z,99.99
2022-10-29T18:27:13.426Z,99.99
2022-10-29T18:32:13.369Z,99.99
2022-10-29T18:37:13.300Z,99.99
2022-10-29T18:42:13.240Z,99.99
2022-10-29T18:47:13.172Z,99.99
2022-10-29T18:52:13.120Z,99.99
2022-10-29T18:57:16.812Z,99.99
2022-10-29T19:02:14.147Z,99.99
2022-10-29T19:07:12.922Z,99.99
2022-10-29T19:12:12.926Z,99.99
2022-10-29T19:17:12.803Z,99.99
2022-10-29T19:22:12.754Z,99.99
2022-10-29T19:27:12.666Z,99.99
2022-10-29T19:32:12.617Z,99.99
2022-10-29T19:37:12.589Z,99.99
2022-10-29T19:42:12.478Z,99.99
2022-10-29T19:47:12.447Z,99.99
2022-10-29T19:52:12.370Z,99.99
2022-10-29T19:57:12.286Z,99.99
2022-10-29T20:02:12.362Z,99.99
2022-10-29T20:07:12.161Z,99.99
2022-10-29T20:12:12.110Z,99.99
2022-10-29T20:17:12.050Z,99.99
2022-10-29T20:22:11.979Z,99.99
2022-10-29T20:27:11.919Z,99.99
2022-10-29T20:32:11.902Z,99.99
2022-10-29T20:37:11.780Z,99.99
2022-10-29T20:42:11.723Z,99.99
2022-10-29T20:47:11.663Z,99.99
2022-10-29T20:52:11.625Z,99.99
2022-10-29T20:57:11.524Z,99.99
2022-10-29T21:02:11.563Z,99.99
2022-10-29T21:07:11.394Z,99.99
2022-10-29T21:12:11.337Z,99.99
2022-10-29T21:17:11.272Z,99.99
2022-10-29T21:22:11.217Z,99.99
2022-10-29T21:27:11.148Z,99.99
2022-10-29T21:32:13.049Z,99.99
2022-10-29T21:37:12.007Z,99.99
2022-10-29T21:42:10.947Z,99.99
2022-10-29T21:47:10.896Z,99.99
2022-10-29T21:52:10.833Z,99.99
2022-10-29T21:57:10.759Z,99.99
2022-10-29T22:02:10.810Z,99.99
2022-10-29T22:07:10.630Z,99.99
2022-10-29T22:12:10.577Z,99.99
2022-10-29T22:17:10.500Z,99.99
2022-10-29T22:22:10.438Z,99.99
2022-10-29T22:27:10.380Z,99.99
2022-10-29T22:32:10.330Z,99.99
2022-10-29T22:37:10.242Z,99.99
2022-10-29T22:42:10.183Z,99.99
2022-10-29T22:47:10.123Z,99.99
2022-10-29T22:52:10.053Z,99.99
2022-10-29T22:57:09.984Z,99.99
2022-10-29T23:02:10.049Z,99.99
2022-10-29T23:07:09.854Z,99.99
2022-10-29T23:12:09.802Z,99.99
2022-10-29T23:17:09.726Z,99.99
2022-10-29T23:22:09.733Z,99.99
2022-10-29T23:27:09.595Z,99.99
2022-10-29T23:32:09.545Z,99.99
2022-10-29T23:37:10.220Z,99.99
2022-10-29T23:42:09.418Z,99.99
2022-10-29T23:47:09.348Z,99.99
2022-10-29T23:52:09.287Z,99.99
2022-10-29T23:57:09.209Z,99.99
